LTAY/DNZ METAR and TAF weather

Enter ICAO airport designator
Station Type Date Time Source
LTAY METAR 2020/04/09 10:50 UTC NOAA

LTAY 091050Z 31006KT 260V360 9999 SCT035 BKN100 14/08 Q1013


Station Type Date Time Source
LTAY Decoded METAR 2020/04/09 10:50 UTC NOAA

Cardak, Turkey (LTAY) 37-47N 029-42E
Apr 09, 2020 - 06:50 AM EDT / 2020.04.09 1050 UTC
Wind: from the NW (310 degrees) at 7 MPH (6 KT) (direction variable):0
Visibility: greater than 7 mile(s):0
Sky conditions: mostly cloudy
Temperature: 57 F (14 C)
Dew Point: 46 F (8 C)
Relative Humidity: 67%
Pressure (altimeter): 29.91 in. Hg (1013 hPa)
ob: LTAY 091050Z 31006KT 260V360 9999 SCT035 BKN100 14/08 Q1013
cycle: 11

Station Type Date Time Source
LTAY TAF UTC NOAA

Error!

Example: see airport list